メインページ
METAR-TAF:

METAR-TAF

空港 :

Ha'il, サウジアラビア

緯度: 27-26N, 経度: 041-41E, 海抜: 1015m

現時点の気象観測

当レポートは1時間8分前の16:00(UTC)に作成
西/北西の風 6kt
気温 36°C
湿度 14%
気圧 1014 hPa
視程10km以上
高度4000ftの雲は散在している

METAR: OEHL 251600Z 30006KT 9999 SCT040 36/04 Q1014 NOSIG

時間: 20:08 (17:08 UTC)

予報

当レポートは6時間8分前の11:00(UTC)に作成
予報は25日の 12時(UTC)から 26日の 18時(UTC)まで有効
北/北西の風 5kt、最大15ktの突風を伴う
視程: 7000m
高度4500ftの雲はほとんどない
高度10000ftの雲は散在している
25日の 12時(UTC)から 25日の 18時(UTC)まで一時的に

TAF: OEHL 251100Z 2512/2618 34005G15KT 7000 FEW045 SCT100 TEMPO 2512/2518 FEW0350CB

4,000以上の空港の気象観測と天気予報(METAR報とTAF報)

利用可能な観測所は地図上に黄色い丸と赤い丸で示す。

丸の上にカーソルを重ねると観測所名を参照できる。

次にクリックすると気象観測と天気予報を参照できる。

マップの切り替え:黒色「×」印の緑ボタンをクリックして拡大、「-」印の緑ボタンをクリックして縮小、緑色の三角印をクリックして隣りの地図に切り替え


METAR-TAF: